Current Weather

Warsaw Municipal Airport

Warsaw Municipal Airport, Indiana (KASW)

Report from: Thursday, May 19, 2022 1:35 PM EDT
Current time: Thursday, May 19, 2022 1:54 PM EDT

Nearby weather
Weather history
Weather forecast

Temperature23.0°C (73.4°F)
Dew point16.0°C (60.8°F)
Winds 5 kts (2.6 m/s, 5.8 mph) South-Southwest (200°)
Visibility10 mi. (16.1 km)
Clouds Sky clear
Altimeter29.71 in.Hg (1006 mB)
Relative humidity65 %
Density altitude1,422 ft. (433 m)
Remarks Fully automated report
Automated weather observing station with precipitation discriminator
Flight conditions Visual Meteorological Conditions
Raw dataKASW 191735Z AUTO 20005KT 10SM CLR 23/16 A2971 RMK AO2
An error has occurred. This application may no longer respond until reloaded. Reload 🗙